Terminal Aerodrome Forecast
Issued by NWS

Home | Current Version | Previous Version | Text Only | Print | Product List | Glossary On
Versions: 1 2 3 4 5 6 7 8 9 10 11 12 13 14 15 16 17
226
FTUS43 KOAX 260522
TAFCDR
TAF
KCDR 260522Z 2606/2706 03013KT P6SM OVC070
     FM260800 01011KT P6SM -RA SCT012 BKN060
      TEMPO 2609/2612 BKN010
     FM261700 03009KT P6SM OVC040=

USA.gov is the U.S. government's official web portal to all federal, state and local government web resources and services.